Time;durP1;ratioP1;P1;durP2;ratioP2;P2;SDS_P1;SDS_P2;PMS_P1;PMS_P2;Temp;Humidity;BMP_temperature;BMP_pressure;BME280_temperature;BME280_humidity;BME280_pressure;Samples;Min_cycle;Max_cycle;Signal;HPM_P1;HPM_P2
2023/03/28 00:01:06;;;;;;;1.60;1.50;;;;;;;5.48;68.85;94007.66;5013230;28;20290;-71
2023/03/28 00:03:35;;;;;;;1.30;1.30;;;;;;;5.47;68.79;94003.50;5011119;28;20320;-71
2023/03/28 00:06:04;;;;;;;1.30;1.30;;;;;;;5.40;68.92;94017.16;5012706;28;20311;-71
2023/03/28 00:08:30;;;;;;;1.48;1.48;;;;;;;5.31;67.77;94025.00;5012443;28;20703;-72
2023/03/28 00:11:09;;;;;;;1.70;1.60;;;;;;;5.31;68.83;94024.16;5012182;28;20227;-71
2023/03/28 00:13:36;;;;;;;1.10;1.10;;;;;;;5.18;67.77;94013.66;5014666;28;20302;-71
2023/03/28 00:16:11;;;;;;;1.38;1.38;;;;;;;5.14;67.68;94037.25;5011253;28;20235;-70
2023/03/28 00:18:39;;;;;;;1.65;1.55;;;;;;;5.05;68.66;94045.06;5010534;28;20223;-71
2023/03/28 00:21:08;;;;;;;1.38;1.38;;;;;;;4.97;68.64;94041.94;5011869;28;20250;-69
2023/03/28 00:23:35;;;;;;;1.50;1.40;;;;;;;4.76;68.65;94064.31;5013047;28;20235;-71
2023/03/28 00:26:07;;;;;;;1.75;1.65;;;;;;;4.73;68.86;94064.41;5011163;28;20209;-71
2023/03/28 00:28:35;;;;;;;1.45;1.45;;;;;;;4.67;69.28;94067.13;5012603;28;20203;-70
2023/03/28 00:31:03;;;;;;;1.70;1.70;;;;;;;4.65;69.73;94076.38;5011831;28;20913;-70
2023/03/28 00:33:31;;;;;;;2.20;1.80;;;;;;;4.66;69.32;94080.56;5012055;28;20226;-70
2023/03/28 00:35:58;;;;;;;1.85;1.80;;;;;;;4.67;68.98;94069.63;5011222;28;20780;-71
2023/03/28 00:38:26;;;;;;;2.05;1.98;;;;;;;4.63;69.93;94085.66;5014511;28;20315;-71
2023/03/28 00:40:56;;;;;;;2.15;2.05;;;;;;;4.67;69.28;94077.19;5012311;28;20203;-69
2023/03/28 00:43:40;;;;;;;2.13;2.03;;;;;;;4.63;69.22;94055.47;5011319;28;20647;-68
2023/03/28 00:46:15;;;;;;;2.10;2.00;;;;;;;4.54;68.83;94095.13;5008751;28;20681;-70
2023/03/28 00:48:51;;;;;;;2.70;2.60;;;;;;;4.49;68.33;94095.25;5008609;28;20234;-68
2023/03/28 00:51:20;;;;;;;2.65;2.55;;;;;;;4.29;69.28;94089.91;5010877;28;20302;-68
2023/03/28 00:53:48;;;;;;;2.47;2.38;;;;;;;4.31;69.58;94115.84;5008861;28;20210;-69
2023/03/28 00:56:18;;;;;;;2.08;1.98;;;;;;;4.30;68.71;94129.28;5011160;28;20302;-69
2023/03/28 00:58:48;;;;;;;2.67;2.40;;;;;;;4.24;68.50;94130.25;5012160;28;20314;-69
2023/03/28 01:01:18;;;;;;;2.78;2.58;;;;;;;4.20;68.53;94146.28;5011215;28;20258;-69
2023/03/28 01:03:55;;;;;;;2.78;2.67;;;;;;;4.15;68.65;94147.25;5012387;28;20673;-70
2023/03/28 01:06:24;;;;;;;3.10;2.97;;;;;;;4.06;69.30;94151.63;5009946;28;20208;-67
2023/03/28 01:08:52;;;;;;;3.05;2.90;;;;;;;4.13;69.47;94148.97;5012279;28;20394;-68
2023/03/28 01:11:20;;;;;;;3.03;2.85;;;;;;;4.15;68.99;94154.81;5009379;28;20212;-69
2023/03/28 01:13:49;;;;;;;3.10;3.00;;;;;;;4.21;69.25;94157.16;5011246;28;20677;-68
2023/03/28 01:16:18;;;;;;;2.58;2.47;;;;;;;4.22;69.39;94171.38;5008714;28;20240;-67
2023/03/28 01:18:50;;;;;;;3.33;3.03;;;;;;;4.17;68.84;94165.66;5011254;28;20214;-71
2023/03/28 01:22:01;;;;;;;2.83;2.72;;;;;;;4.14;67.93;94175.78;5010751;28;20295;-71
2023/03/28 01:25:08;;;;;;;5.88;2.35;;;;;;;4.11;68.02;94176.66;5008209;28;20215;-70
2023/03/28 01:27:43;;;;;;;2.60;2.50;;;;;;;3.97;69.20;94188.72;5009718;28;20219;-67
2023/03/28 01:30:45;;;;;;;2.88;2.65;;;;;;;3.94;68.71;94194.66;5010706;28;20293;-69
2023/03/28 01:33:50;;;;;;;3.00;2.80;;;;;;;4.01;68.74;94170.19;5011309;28;20231;-67
2023/03/28 01:36:36;;;;;;;2.67;2.58;;;;;;;4.08;67.26;94187.63;5009061;28;21119;-69
2023/03/28 01:39:11;;;;;;;2.65;2.45;;;;;;;3.99;67.84;94197.88;5008620;28;20413;-67
2023/03/28 01:41:45;;;;;;;2.88;2.72;;;;;;;4.03;67.37;94194.44;5010005;28;20676;-74
2023/03/28 01:44:21;;;;;;;3.03;2.88;;;;;;;4.07;67.23;94198.53;5010112;28;20299;-69
2023/03/28 01:46:58;;;;;;;2.40;2.30;;;;;;;4.07;66.82;94205.25;5009547;28;20239;-70
2023/03/28 01:49:33;;;;;;;4.30;2.78;;;;;;;4.04;67.41;94193.56;5010612;28;21966;-69
2023/03/28 01:52:09;;;;;;;3.20;3.00;;;;;;;3.93;67.58;94219.81;5010112;28;20285;-72
2023/03/28 01:54:43;;;;;;;2.97;2.85;;;;;;;4.17;66.55;94229.34;5009133;28;20862;-69
2023/03/28 01:57:16;;;;;;;2.63;2.53;;;;;;;4.10;67.27;94228.66;5011138;28;20203;-66
2023/03/28 01:59:47;;;;;;;2.45;2.35;;;;;;;3.88;67.25;94209.88;5010648;28;20327;-69
2023/03/28 02:02:23;;;;;;;2.70;2.60;;;;;;;3.85;67.85;94212.44;5011590;28;20214;-71
2023/03/28 02:04:52;;;;;;;3.22;3.08;;;;;;;3.94;67.51;94229.03;5010904;28;20239;-71
2023/03/28 02:07:24;;;;;;;2.80;2.70;;;;;;;3.92;66.67;94221.50;5011644;28;20246;-68
2023/03/28 02:09:54;;;;;;;2.97;2.88;;;;;;;4.00;67.45;94227.19;5009363;28;20205;-71
2023/03/28 02:12:26;;;;;;;3.00;2.88;;;;;;;4.05;67.19;94215.34;5010606;28;20231;-70
2023/03/28 02:14:56;;;;;;;2.78;2.58;;;;;;;4.09;66.45;94211.91;5011232;28;20302;-64
2023/03/28 02:17:24;;;;;;;2.90;2.70;;;;;;;4.00;66.63;94189.47;5010330;28;20561;-64
2023/03/28 02:19:57;;;;;;;2.83;2.63;;;;;;;3.89;66.84;94211.53;5010418;28;20259;-66
2023/03/28 02:22:32;;;;;;;3.05;2.85;;;;;;;3.80;67.02;94213.38;5009553;28;20208;-69
2023/03/28 02:24:59;;;;;;;3.00;2.90;;;;;;;3.84;67.35;94220.00;5009978;28;20200;-68
2023/03/28 02:27:27;;;;;;;2.67;2.58;;;;;;;3.78;67.93;94203.38;5010044;28;20252;-67
2023/03/28 02:29:54;;;;;;;3.22;3.03;;;;;;;3.68;67.69;94210.28;5010001;28;20203;-68
2023/03/28 02:32:22;;;;;;;3.33;3.13;;;;;;;3.63;67.54;94214.59;5010923;28;20212;-67
2023/03/28 02:34:52;;;;;;;3.35;3.15;;;;;;;3.69;67.98;94223.69;5010175;28;20207;-73
2023/03/28 02:37:30;;;;;;;4.10;2.85;;;;;;;3.64;68.16;94205.34;5009803;28;20299;-68
2023/03/28 02:40:12;;;;;;;3.25;3.05;;;;;;;3.66;67.63;94216.19;5010567;28;20239;-72
2023/03/28 02:43:01;;;;;;;3.63;3.42;;;;;;;3.68;68.11;94237.09;5010850;28;20211;-69
2023/03/28 02:46:08;;;;;;;2.90;2.70;;;;;;;3.62;68.21;94207.06;5009621;28;20208;-67
2023/03/28 02:49:03;;;;;;;2.58;2.38;;;;;;;3.61;68.32;94217.97;5010702;28;20235;-73
2023/03/28 02:51:34;;;;;;;2.90;2.70;;;;;;;3.70;68.72;94215.28;4997764;28;20318;-71
2023/03/28 02:54:16;;;;;;;3.00;2.65;;;;;;;3.80;67.67;94231.81;5010231;28;20208;-71
2023/03/28 02:56:52;;;;;;;2.47;2.38;;;;;;;3.86;67.48;94216.59;5009493;28;20302;-71
2023/03/28 02:59:26;;;;;;;2.25;2.08;;;;;;;3.84;66.92;94217.50;5010429;28;20292;-64
2023/03/28 03:01:53;;;;;;;2.47;2.38;;;;;;;3.78;67.54;94245.25;5010332;28;20207;-70
2023/03/28 03:04:19;;;;;;;2.42;2.30;;;;;;;3.81;67.35;94230.94;5011031;28;20266;-70
2023/03/28 03:06:47;;;;;;;2.08;1.98;;;;;;;3.79;66.98;94235.19;5010196;28;20235;-73
2023/03/28 03:09:17;;;;;;;2.28;2.17;;;;;;;3.70;66.43;94242.94;5009629;28;20211;-69
2023/03/28 03:11:43;;;;;;;2.30;2.20;;;;;;;3.67;66.25;94250.53;5009601;28;20298;-69
2023/03/28 03:14:10;;;;;;;1.95;1.85;;;;;;;3.74;66.91;94252.03;5009724;28;20211;-67
2023/03/28 03:16:38;;;;;;;2.17;2.08;;;;;;;3.74;66.16;94262.09;5009038;28;20212;-68
2023/03/28 03:19:06;;;;;;;2.10;2.00;;;;;;;3.71;66.24;94255.44;5013998;28;20210;-70
2023/03/28 03:21:33;;;;;;;1.83;1.73;;;;;;;3.67;65.46;94261.41;5013544;28;20199;-72
2023/03/28 03:23:59;;;;;;;1.88;1.77;;;;;;;3.70;65.92;94271.38;5013741;28;20956;-70
2023/03/28 03:26:27;;;;;;;1.85;1.80;;;;;;;3.67;65.67;94265.59;5011662;28;20328;-74
2023/03/28 03:28:56;;;;;;;2.10;2.00;;;;;;;3.58;65.63;94268.28;5012931;28;20313;-66
2023/03/28 03:31:23;;;;;;;2.38;1.80;;;;;;;3.37;65.12;94257.78;5014152;28;20666;-73
2023/03/28 03:33:49;;;;;;;1.77;1.52;;;;;;;3.35;64.06;94256.16;5013437;28;20204;-72
2023/03/28 03:36:17;;;;;;;1.60;1.60;;;;;;;3.25;65.00;94272.25;5013911;28;20231;-71
2023/03/28 03:38:44;;;;;;;1.50;1.50;;;;;;;3.20;63.90;94274.03;5013317;28;20214;-66
2023/03/28 03:41:11;;;;;;;1.52;1.52;;;;;;;3.07;64.16;94274.22;5013877;28;20227;-72
2023/03/28 03:43:40;;;;;;;1.60;1.50;;;;;;;3.11;64.56;94287.56;5013466;28;20301;-69
2023/03/28 03:46:07;;;;;;;1.30;1.30;;;;;;;3.15;65.23;94294.19;5013611;28;20207;-71
2023/03/28 03:48:33;;;;;;;2.65;2.55;;;;;;;3.19;65.18;94283.25;5012753;28;20289;-71
2023/03/28 03:51:00;;;;;;;1.58;1.48;;;;;;;3.15;64.61;94276.63;5012991;28;20195;-75
2023/03/28 03:53:27;;;;;;;1.60;1.52;;;;;;;3.13;64.46;94303.44;5014647;28;20235;-68
2023/03/28 03:55:53;;;;;;;1.75;1.67;;;;;;;3.10;64.49;94298.44;5013502;28;20207;-67
2023/03/28 03:58:20;;;;;;;1.85;1.75;;;;;;;3.19;64.47;94302.50;5013091;28;20298;-69
2023/03/28 04:00:48;;;;;;;1.60;1.50;;;;;;;3.20;64.34;94301.66;5013971;28;20427;-71
2023/03/28 04:03:15;;;;;;;1.70;1.60;;;;;;;3.18;63.67;94301.66;5010978;28;20204;-71
2023/03/28 04:05:42;;;;;;;1.90;1.80;;;;;;;3.11;64.25;94312.66;5012526;28;21547;-71
2023/03/28 04:08:09;;;;;;;1.90;1.80;;;;;;;2.96;64.12;94321.28;5012577;28;20749;-71
2023/03/28 04:10:35;;;;;;;2.25;2.15;;;;;;;2.96;64.73;94326.31;5020174;28;20235;-66
2023/03/28 04:13:02;;;;;;;2.10;2.00;;;;;;;2.95;64.69;94329.66;5016027;28;20870;-72
2023/03/28 04:15:29;;;;;;;1.95;1.92;;;;;;;3.01;65.04;94338.75;5011894;28;20294;-68
2023/03/28 04:17:57;;;;;;;2.03;1.92;;;;;;;3.09;64.09;94324.41;5011693;28;20216;-68
2023/03/28 04:20:25;;;;;;;2.00;1.90;;;;;;;3.06;63.89;94344.53;5012519;28;20311;-71
2023/03/28 04:22:53;;;;;;;1.88;1.77;;;;;;;3.09;64.27;94349.50;5010952;28;20633;-68
2023/03/28 04:25:20;;;;;;;2.08;1.98;;;;;;;3.09;63.92;94347.00;5012049;28;20204;-67
2023/03/28 04:27:47;;;;;;;2.38;1.70;;;;;;;3.19;63.92;94366.09;5008008;28;20239;-72
2023/03/28 04:30:14;;;;;;;1.77;1.73;;;;;;;3.22;63.37;94368.53;5011047;28;20227;-70
2023/03/28 04:32:41;;;;;;;2.92;2.72;;;;;;;3.30;64.48;94361.69;5010625;28;21786;-69
2023/03/28 04:35:10;;;;;;;2.20;2.10;;;;;;;3.34;64.32;94378.38;5011453;28;20231;-70
2023/03/28 04:37:37;;;;;;;1.95;1.65;;;;;;;3.37;63.78;94380.84;5012886;28;20207;-71
2023/03/28 04:40:09;;;;;;;1.77;1.67;;;;;;;3.31;62.75;94382.63;5011726;28;20259;-71
2023/03/28 04:42:36;;;;;;;2.30;2.20;;;;;;;3.36;63.10;94385.88;5012741;28;20208;-65
2023/03/28 04:45:05;;;;;;;1.95;1.85;;;;;;;3.46;61.53;94397.44;5011078;28;20760;-70
2023/03/28 04:47:32;;;;;;;2.83;2.63;;;;;;;3.46;61.03;94410.00;5010973;28;20195;-72
2023/03/28 04:49:58;;;;;;;2.92;2.72;;;;;;;3.50;60.83;94406.56;5011252;28;20288;-69
2023/03/28 04:52:26;;;;;;;2.88;2.63;;;;;;;3.52;60.67;94402.34;5011975;28;20294;-72
2023/03/28 04:54:53;;;;;;;6.68;3.17;;;;;;;3.52;59.79;94432.50;5010711;28;20301;-74
2023/03/28 04:57:20;;;;;;;4.50;3.60;;;;;;;3.47;59.83;94410.81;5011164;28;20417;-73
2023/03/28 04:59:47;;;;;;;3.92;3.72;;;;;;;3.54;59.37;94412.38;5012652;28;20204;-71
2023/03/28 05:02:13;;;;;;;4.10;3.80;;;;;;;3.64;59.76;94418.91;5010544;28;20354;-69
2023/03/28 05:04:41;;;;;;;5.63;4.47;;;;;;;3.55;59.61;94439.16;5011351;28;20268;-69
2023/03/28 05:07:07;;;;;;;5.40;4.85;;;;;;;3.39;59.06;94415.97;5010707;28;20874;-71
2023/03/28 05:09:36;;;;;;;5.25;3.92;;;;;;;3.46;59.84;94417.53;5011323;28;20204;-72
2023/03/28 05:12:03;;;;;;;4.38;4.03;;;;;;;3.61;59.68;94431.53;5012424;28;21425;-69
2023/03/28 05:14:30;;;;;;;4.40;4.00;;;;;;;3.57;59.04;94433.25;5011147;28;20208;-68
2023/03/28 05:16:57;;;;;;;4.57;4.03;;;;;;;3.53;59.12;94445.88;5012813;28;20269;-71
2023/03/28 05:19:24;;;;;;;4.15;3.78;;;;;;;3.52;58.14;94442.53;5009895;28;20320;-73
2023/03/28 05:21:50;;;;;;;3.88;3.67;;;;;;;3.49;59.42;94429.19;5012164;28;20227;-70
2023/03/28 05:24:17;;;;;;;4.00;3.78;;;;;;;3.60;58.88;94439.91;5011858;28;20285;-73
2023/03/28 05:26:46;;;;;;;4.95;4.47;;;;;;;3.47;58.65;94440.94;5010787;28;20297;-69
2023/03/28 05:29:12;;;;;;;4.20;4.00;;;;;;;3.46;59.62;94431.78;5010241;28;20298;-70
2023/03/28 05:31:39;;;;;;;4.07;3.75;;;;;;;3.57;58.16;94420.69;5012258;28;20216;-70
2023/03/28 05:34:06;;;;;;;4.28;3.90;;;;;;;3.45;58.42;94441.00;5010002;28;20247;-71
2023/03/28 05:36:32;;;;;;;4.00;3.80;;;;;;;3.49;59.34;94431.72;5009710;28;21513;-68
2023/03/28 05:38:59;;;;;;;3.45;3.25;;;;;;;3.49;58.59;94439.25;5010237;28;20742;-68
2023/03/28 05:41:26;;;;;;;6.95;6.00;;;;;;;3.56;58.18;94445.84;5010164;28;20251;-70
2023/03/28 05:43:55;;;;;;;5.03;4.68;;;;;;;3.60;58.69;94440.75;5011398;28;20346;-70
2023/03/28 05:46:21;;;;;;;4.03;3.80;;;;;;;3.66;58.99;94464.94;5011468;28;20303;-73
2023/03/28 05:48:48;;;;;;;5.55;3.80;;;;;;;3.65;57.67;94443.19;5009326;28;20745;-69
2023/03/28 05:51:15;;;;;;;4.20;4.00;;;;;;;3.66;58.29;94463.25;5011214;28;20292;-71
2023/03/28 05:53:42;;;;;;;3.97;3.78;;;;;;;3.66;57.49;94455.72;5010196;28;20211;-72
2023/03/28 05:56:10;;;;;;;4.63;4.22;;;;;;;3.64;57.45;94471.66;5010957;28;20290;-70
2023/03/28 05:58:36;;;;;;;4.35;4.15;;;;;;;3.59;57.27;94486.81;5012193;28;20641;-71
2023/03/28 06:01:05;;;;;;;4.90;4.55;;;;;;;3.60;57.66;94485.97;5009270;28;20322;-69
2023/03/28 06:03:32;;;;;;;3.80;3.60;;;;;;;3.74;57.96;94488.22;5009489;28;20239;-73
2023/03/28 06:05:58;;;;;;;4.43;4.13;;;;;;;3.79;57.15;94448.78;5010318;28;20211;-71
2023/03/28 06:08:25;;;;;;;3.78;3.50;;;;;;;3.79;57.38;94481.47;5009187;28;20207;-71
2023/03/28 06:10:52;;;;;;;4.05;3.63;;;;;;;3.95;56.18;94477.84;5010108;28;20283;-69
2023/03/28 06:13:19;;;;;;;3.33;3.13;;;;;;;3.99;56.23;94488.66;5010376;28;20235;-71
2023/03/28 06:15:46;;;;;;;5.07;4.68;;;;;;;3.94;56.04;94498.81;5008068;28;20274;-71
2023/03/28 06:18:14;;;;;;;4.20;3.90;;;;;;;3.85;55.22;94506.50;5007959;28;20235;-71
2023/03/28 06:20:40;;;;;;;3.58;3.38;;;;;;;3.70;55.32;94515.13;5010007;28;20314;-68
2023/03/28 06:23:07;;;;;;;3.30;3.10;;;;;;;3.70;55.60;94500.03;5007928;28;20243;-71
2023/03/28 06:25:34;;;;;;;3.97;3.67;;;;;;;3.78;56.18;94504.94;5010205;28;20346;-72
2023/03/28 06:28:01;;;;;;;4.45;4.10;;;;;;;3.92;55.79;94505.53;5009906;28;20220;-74
2023/03/28 06:30:27;;;;;;;4.32;3.92;;;;;;;4.03;55.33;94502.81;5010661;28;20307;-73
2023/03/28 06:32:54;;;;;;;3.78;3.53;;;;;;;4.08;55.44;94496.88;5010785;28;20298;-74
2023/03/28 06:35:22;;;;;;;3.67;3.38;;;;;;;4.17;55.06;94493.38;5009501;28;20303;-72
2023/03/28 06:37:49;;;;;;;4.63;4.22;;;;;;;4.14;54.75;94482.53;5011031;28;20325;-72
2023/03/28 06:40:15;;;;;;;4.47;3.63;;;;;;;4.14;54.62;94492.59;5010981;28;20299;-71
2023/03/28 06:42:42;;;;;;;4.93;4.53;;;;;;;4.14;54.79;94497.63;5009271;28;20240;-72
2023/03/28 06:45:10;;;;;;;4.45;4.15;;;;;;;4.22;55.79;94503.31;5010149;28;20213;-70
2023/03/28 06:47:36;;;;;;;4.30;4.10;;;;;;;4.34;54.50;94503.13;5010882;28;20302;-75
2023/03/28 06:50:03;;;;;;;4.40;4.10;;;;;;;4.23;53.88;94510.84;5009552;28;20752;-73
2023/03/28 06:52:31;;;;;;;4.15;3.85;;;;;;;4.22;53.85;94513.38;5011287;28;20277;-71
2023/03/28 06:54:59;;;;;;;4.72;4.28;;;;;;;4.01;54.16;94522.97;5008590;28;20329;-69
2023/03/28 06:57:26;;;;;;;4.30;4.00;;;;;;;3.88;55.05;94521.53;5008036;28;20254;-72
2023/03/28 06:59:52;;;;;;;4.88;4.47;;;;;;;3.90;54.41;94519.81;5009606;28;20298;-70
2023/03/28 07:02:19;;;;;;;4.68;4.28;;;;;;;3.93;54.15;94519.78;5010002;28;20340;-71
2023/03/28 07:04:46;;;;;;;5.38;4.53;;;;;;;3.92;54.10;94537.38;5009497;28;20236;-71
2023/03/28 07:07:13;;;;;;;4.20;3.90;;;;;;;3.96;54.62;94527.22;5008610;28;20214;-71
2023/03/28 07:09:41;;;;;;;5.78;5.25;;;;;;;4.12;54.76;94547.09;5010960;28;20261;-70
2023/03/28 07:12:08;;;;;;;3.75;3.47;;;;;;;4.23;53.10;94547.72;5010315;28;20231;-71
2023/03/28 07:14:35;;;;;;;3.75;3.42;;;;;;;4.22;53.54;94538.53;5009827;28;20319;-70
2023/03/28 07:17:01;;;;;;;4.10;3.80;;;;;;;4.37;52.40;94545.81;5009388;28;20212;-68
2023/03/28 07:19:28;;;;;;;12.70;4.43;;;;;;;4.48;52.33;94555.66;5008447;28;20326;-68
2023/03/28 07:21:55;;;;;;;4.15;3.85;;;;;;;4.65;52.39;94567.09;5009333;28;20362;-68
2023/03/28 07:24:22;;;;;;;4.80;3.60;;;;;;;4.55;52.32;94550.50;5010016;28;20302;-70
2023/03/28 07:26:50;;;;;;;3.67;3.38;;;;;;;4.57;52.96;94553.00;5009330;28;20613;-67
2023/03/28 07:29:16;;;;;;;4.45;3.90;;;;;;;4.65;52.81;94544.47;5009248;28;20288;-69
2023/03/28 07:31:43;;;;;;;4.35;3.95;;;;;;;4.67;52.71;94551.97;5009627;28;20299;-71
2023/03/28 07:34:10;;;;;;;3.50;3.30;;;;;;;4.66;52.49;94572.97;5006484;28;20227;-69
2023/03/28 07:36:38;;;;;;;3.38;3.17;;;;;;;4.76;51.41;94562.69;5009406;28;21006;-72
2023/03/28 07:39:05;;;;;;;3.70;3.38;;;;;;;4.71;51.37;94559.41;5008627;28;20311;-74
2023/03/28 07:41:32;;;;;;;4.35;4.15;;;;;;;4.79;50.99;94565.16;5009505;28;20314;-75
2023/03/28 07:44:00;;;;;;;4.55;3.65;;;;;;;4.76;50.40;94582.81;5009165;28;20212;-73
2023/03/28 07:46:27;;;;;;;2.95;2.85;;;;;;;4.60;51.28;94589.00;5008240;28;20243;-72
2023/03/28 07:48:55;;;;;;;3.22;3.03;;;;;;;4.52;50.47;94585.78;5008613;28;20216;-68
2023/03/28 07:51:21;;;;;;;3.67;3.45;;;;;;;4.51;51.64;94606.78;5009054;28;20758;-72
2023/03/28 07:53:48;;;;;;;3.88;3.58;;;;;;;4.39;51.42;94605.31;5008531;28;20709;-73
2023/03/28 07:56:15;;;;;;;3.25;3.05;;;;;;;4.42;51.44;94619.53;5009701;28;20205;-71
2023/03/28 07:58:42;;;;;;;3.47;3.28;;;;;;;4.43;51.05;94618.69;5007312;28;20684;-69
2023/03/28 08:01:12;;;;;;;7.85;3.33;;;;;;;4.35;51.19;94617.97;5006705;28;20708;-66
2023/03/28 08:03:39;;;;;;;3.22;3.03;;;;;;;4.41;51.35;94605.28;5009524;28;20781;-70
2023/03/28 08:06:09;;;;;;;3.30;3.10;;;;;;;4.43;51.59;94611.13;5012289;28;20326;-74
2023/03/28 08:08:36;;;;;;;4.20;3.55;;;;;;;4.57;51.75;94619.25;5012406;28;20247;-72
2023/03/28 08:11:03;;;;;;;3.88;3.63;;;;;;;4.59;51.79;94621.75;5012281;28;20661;-74
2023/03/28 08:13:30;;;;;;;4.22;3.65;;;;;;;4.88;51.68;94616.19;5013756;28;20285;-73
2023/03/28 08:15:56;;;;;;;6.45;4.32;;;;;;;5.12;50.02;94613.19;5011606;28;20905;-68
2023/03/28 08:18:25;;;;;;;4.70;4.00;;;;;;;5.34;49.90;94628.69;5011310;28;20235;-72
2023/03/28 08:20:58;;;;;;;3.20;3.05;;;;;;;5.21;49.88;94635.66;5011476;28;20263;-74
2023/03/28 08:23:26;;;;;;;2.70;2.60;;;;;;;5.20;50.28;94628.97;5011812;28;20204;-67
2023/03/28 08:25:53;;;;;;;3.10;2.90;;;;;;;5.58;49.39;94632.41;5011260;28;20218;-70
2023/03/28 08:28:21;;;;;;;3.33;3.13;;;;;;;6.27;48.54;94624.97;5012728;28;20681;-72
2023/03/28 08:30:47;;;;;;;3.38;3.10;;;;;;;6.72;47.29;94643.19;5012077;28;20249;-69
2023/03/28 08:33:14;;;;;;;4.05;3.75;;;;;;;6.60;46.26;94637.63;5010066;28;20897;-72
2023/03/28 08:35:42;;;;;;;3.40;3.20;;;;;;;6.50;46.64;94642.06;5011915;28;20212;-73
2023/03/28 08:38:09;;;;;;;3.00;2.80;;;;;;;6.76;46.46;94634.69;5012261;28;20291;-71
2023/03/28 08:40:41;;;;;;;2.90;2.80;;;;;;;6.95;46.26;94629.13;5012024;28;20210;-69
2023/03/28 08:43:24;;;;;;;3.50;3.20;;;;;;;7.08;45.01;94645.63;5010819;28;20219;-69
2023/03/28 08:45:53;;;;;;;3.80;3.60;;;;;;;7.48;43.84;94651.25;5011381;28;20708;-72
2023/03/28 08:48:24;;;;;;;3.15;2.95;;;;;;;7.43;44.50;94650.53;5010260;28;20601;-71
2023/03/28 08:50:57;;;;;;;2.80;2.60;;;;;;;7.31;44.26;94645.00;5011224;28;20243;-68
2023/03/28 08:53:33;;;;;;;3.78;3.22;;;;;;;7.18;45.52;94657.13;5011333;28;20243;-70
2023/03/28 08:56:03;;;;;;;4.22;3.92;;;;;;;6.92;45.28;94664.59;5010442;28;20587;-70
2023/03/28 08:58:34;;;;;;;4.10;3.70;;;;;;;6.63;46.04;94653.53;5010281;28;20298;-69
2023/03/28 09:01:02;;;;;;;3.22;2.50;;;;;;;6.71;46.58;94671.00;5010720;28;20323;-73
2023/03/28 09:03:30;;;;;;;4.45;3.13;;;;;;;6.79;46.40;94682.59;5011660;28;20247;-72
2023/03/28 09:06:04;;;;;;;7.97;3.55;;;;;;;6.93;45.31;94676.38;5010190;28;20704;-72
2023/03/28 09:08:53;;;;;;;5.28;3.30;;;;;;;7.02;45.86;94676.94;5009255;28;20333;-71
2023/03/28 09:11:40;;;;;;;3.15;2.80;;;;;;;7.31;45.02;94678.69;5011526;28;20319;-74
2023/03/28 09:14:24;;;;;;;2.83;2.72;;;;;;;7.50;45.54;94669.72;5011444;28;20199;-69
2023/03/28 09:17:02;;;;;;;3.05;2.78;;;;;;;7.93;43.79;94663.44;5012195;28;20230;-74
2023/03/28 09:19:48;;;;;;;4.03;2.58;;;;;;;7.86;43.66;94672.09;5011541;28;20324;-71
2023/03/28 09:22:29;;;;;;;6.03;2.90;;;;;;;7.57;45.22;94682.22;5010032;28;20227;-70
2023/03/28 09:25:05;;;;;;;2.97;2.88;;;;;;;7.46;45.31;94688.38;5012058;28;20722;-73
2023/03/28 09:27:36;;;;;;;4.25;3.83;;;;;;;7.35;45.56;94685.34;5010568;28;20235;-73
2023/03/28 09:30:17;;;;;;;3.40;3.10;;;;;;;7.31;46.04;94676.19;5011698;28;20226;-72
2023/03/28 09:32:45;;;;;;;3.78;3.58;;;;;;;7.31;46.11;94676.19;5010218;28;20204;-71
2023/03/28 09:35:16;;;;;;;4.20;3.90;;;;;;;7.14;47.21;94675.81;5011695;28;20231;-68
2023/03/28 09:37:48;;;;;;;3.60;3.40;;;;;;;6.94;48.13;94672.94;5010726;28;21590;-74
2023/03/28 09:40:20;;;;;;;11.35;3.33;;;;;;;7.10;47.67;94669.19;5010729;28;20299;-71
2023/03/28 09:43:02;;;;;;;3.45;3.15;;;;;;;6.98;46.78;94679.59;5011202;28;20616;-74
2023/03/28 09:45:40;;;;;;;2.72;2.53;;;;;;;7.13;46.54;94700.25;5011135;28;20239;-74
2023/03/28 09:48:20;;;;;;;3.60;2.72;;;;;;;7.16;45.81;94679.13;5010647;28;20645;-73
2023/03/28 09:50:47;;;;;;;3.10;2.90;;;;;;;7.39;45.66;94691.97;5011004;28;20207;-74
2023/03/28 09:53:21;;;;;;;2.88;2.67;;;;;;;7.68;45.19;94688.59;5010149;28;20208;-76
2023/03/28 09:55:48;;;;;;;2.95;2.80;;;;;;;7.87;45.39;94696.53;5011519;28;20653;-71
2023/03/28 09:58:16;;;;;;;2.85;2.65;;;;;;;8.11;44.33;94688.22;5009994;28;21068;-69
2023/03/28 10:00:47;;;;;;;10.15;8.02;;;;;;;7.92;43.92;94691.34;5011133;28;20203;-70
2023/03/28 10:03:22;;;;;;;4.38;3.22;;;;;;;7.62;44.30;94685.44;5010184;28;20725;-72
2023/03/28 10:05:50;;;;;;;5.13;4.72;;;;;;;7.74;44.10;94690.13;5010607;28;20210;-68
2023/03/28 10:08:31;;;;;;;3.45;2.90;;;;;;;7.63;41.77;94679.53;5009933;28;20688;-71
2023/03/28 10:11:05;;;;;;;4.50;4.03;;;;;;;7.52;43.63;94677.28;5009885;28;20203;-73
2023/03/28 10:13:40;;;;;;;2.83;2.63;;;;;;;7.94;42.24;94679.44;5010662;28;20219;-71
2023/03/28 10:16:10;;;;;;;3.15;2.72;;;;;;;8.52;41.74;94676.00;5010396;28;20207;-72
2023/03/28 10:18:39;;;;;;;3.10;2.80;;;;;;;8.83;39.79;94666.53;5010614;28;20297;-70
2023/03/28 10:21:12;;;;;;;2.90;2.70;;;;;;;8.49;40.23;94671.03;5010213;28;20222;-69
2023/03/28 10:23:44;;;;;;;3.65;3.20;;;;;;;8.26;40.45;94675.94;5009629;28;20224;-67
2023/03/28 10:26:12;;;;;;;2.90;2.72;;;;;;;7.82;41.06;94680.66;5009048;28;20289;-66
2023/03/28 10:28:42;;;;;;;4.13;3.05;;;;;;;7.65;42.39;94672.72;5009879;28;20222;-70
2023/03/28 10:31:25;;;;;;;3.30;3.00;;;;;;;7.68;43.46;94698.72;5009346;28;20214;-72
2023/03/28 10:33:52;;;;;;;2.53;2.42;;;;;;;7.69;43.13;94700.38;5010291;28;20208;-73
2023/03/28 10:36:31;;;;;;;3.03;2.83;;;;;;;7.64;42.20;94701.41;5010050;28;20203;-69
2023/03/28 10:39:00;;;;;;;3.42;3.00;;;;;;;7.64;42.68;94701.41;5010105;28;20204;-72
2023/03/28 10:41:28;;;;;;;2.70;2.50;;;;;;;7.60;43.84;94707.41;5011227;28;20304;-68
2023/03/28 10:43:56;;;;;;;2.42;2.33;;;;;;;7.65;42.49;94713.19;5010337;28;20338;-70
2023/03/28 10:46:28;;;;;;;3.83;2.25;;;;;;;7.56;43.92;94723.53;5010355;28;20227;-72
2023/03/28 10:49:01;;;;;;;2.90;2.70;;;;;;;7.47;44.53;94725.44;5009923;28;20202;-67
2023/03/28 10:51:30;;;;;;;3.35;3.00;;;;;;;7.71;45.61;94705.41;5010150;28;20302;-73
2023/03/28 10:54:18;;;;;;;3.35;2.70;;;;;;;8.15;44.96;94687.25;5009725;28;20219;-66
2023/03/28 10:56:51;;;;;;;2.58;2.45;;;;;;;8.15;43.86;94704.13;5008204;28;22014;-69
2023/03/28 10:59:47;;;;;;;2.83;2.65;;;;;;;8.45;43.42;94687.19;5010854;28;20265;-72
2023/03/28 11:02:52;;;;;;;2.78;2.58;;;;;;;8.26;43.64;94688.59;5002162;28;20301;-71
2023/03/28 11:05:32;;;;;;;2.65;2.45;;;;;;;8.03;43.93;94689.31;4987575;28;20308;-72
2023/03/28 11:08:07;;;;;;;3.30;3.00;;;;;;;7.75;43.46;94706.97;5009635;28;20270;-70
2023/03/28 11:10:41;;;;;;;2.90;2.58;;;;;;;7.40;43.41;94702.91;5009879;28;20234;-69
2023/03/28 11:13:21;;;;;;;3.13;2.92;;;;;;;7.33;45.07;94707.28;5009832;28;20290;-68
2023/03/28 11:15:56;;;;;;;3.63;2.53;;;;;;;7.39;44.65;94698.72;5010041;28;20196;-71
2023/03/28 11:18:40;;;;;;;3.90;3.05;;;;;;;7.24;44.54;94706.69;5010231;28;20238;-69
2023/03/28 11:21:17;;;;;;;2.78;2.58;;;;;;;7.27;44.47;94717.56;5010151;28;20673;-71
2023/03/28 11:23:47;;;;;;;2.92;2.50;;;;;;;7.32;43.81;94707.34;5009773;28;20263;-71
2023/03/28 11:26:20;;;;;;;3.50;2.97;;;;;;;7.34;44.53;94714.00;5010082;28;20214;-70
2023/03/28 11:29:06;;;;;;;3.35;3.05;;;;;;;7.22;42.66;94694.09;5009199;28;20210;-70
2023/03/28 11:31:40;;;;;;;2.60;2.40;;;;;;;7.01;43.17;94705.59;5009740;28;20259;-70
2023/03/28 11:34:15;;;;;;;3.13;2.92;;;;;;;6.97;43.28;94698.13;5010846;28;20204;-71
2023/03/28 11:36:52;;;;;;;3.40;3.20;;;;;;;6.85;43.40;94694.22;5009242;28;20750;-69
2023/03/28 11:39:25;;;;;;;3.13;2.85;;;;;;;6.92;43.78;94702.50;5012603;28;20286;-70
2023/03/28 11:41:56;;;;;;;3.13;2.92;;;;;;;6.89;43.27;94702.56;5013337;28;20618;-68
2023/03/28 11:44:30;;;;;;;5.75;2.83;;;;;;;6.65;43.04;94682.09;5014566;28;20320;-69
2023/03/28 11:47:04;;;;;;;2.95;2.75;;;;;;;6.57;42.90;94699.13;5012412;28;20699;-68
2023/03/28 11:49:35;;;;;;;5.90;2.60;;;;;;;6.46;42.66;94685.91;5012717;28;20202;-69
2023/03/28 11:52:10;;;;;;;2.45;2.17;;;;;;;6.39;42.66;94697.03;5011633;28;20267;-69
2023/03/28 11:54:42;;;;;;;2.85;2.65;;;;;;;6.36;42.75;94699.63;5013258;28;20696;-70
2023/03/28 11:57:20;;;;;;;2.83;2.58;;;;;;;6.34;42.86;94703.88;5012367;28;20285;-67
2023/03/28 11:59:51;;;;;;;2.40;2.30;;;;;;;6.17;42.58;94695.88;5013187;28;20258;-74